Preview of NWS' New Version of Forecast
This preview is not operational and should not be used for support decisions.
Latest weather observations around

Ak-Chin Regional Airport (KA39)

Using International System of Units (Switch to English Units)
Date/ Time (MST) Wind (kph) Vis. (km) Weather Sky Cond. Temp (°C) Rel. Humidity Wind Chill (°C) Heat Index (°C) Pressure Precip. (cm)
Air Dwpt 6 hour Altimeter (hPa) Sea level (hPa) 1 hr 3 hr 6 hr
Max Min
Sep 16 19:15 SSE 22 16.09 Clear   25 15     54%   25 1012.87        
Sep 16 18:55 SE 26 16.09 Clear   26 15     51%   26 1012.53        
Sep 16 18:35 SE 17 16.09 Clear   26 16     54%   26 1012.53        
Sep 16 18:15 SSE 24 11.27 Clear   26 16     54%   26 1012.87        
Notice The following observation data may not be complete
Sep 16 17:55   3.22 Clear     16      %              
Sep 16 17:35 S 22 16.09 Mostly Cloudy BKN110 28 17     51%   29 1011.85        
Sep 16 17:15 S 24 16.09 Clear   29 17     48%   29 1011.51        
Sep 16 16:55 S 15 16.09 Clear   30 17     46%   30 1011.51        
Sep 16 16:35 S 17 16.09 Clear   30 18     49%   31 1011.18        
Sep 16 16:15 S 20 16.09 Clear   30 18     49%   31 1011.51        
Sep 16 15:55 SSE 19 16.09 Clear   28 17     51%   29 1011.85        
Sep 16 15:35 SSE 30 16.09 Clear   29 15     43%   29 1011.51        
Sep 16 15:15 SE 24 16.09 Clear   26 18     61%   26 1012.19        
Notice The following observation data may not be complete
Sep 16 14:55   16.09 Clear     18      %     1012.53        
Sep 16 14:35 Calm 16.09 Clear   34 16     34%   34 1012.19        
Sep 16 14:15 NNW 9 16.09 Clear   34 16     34%   34 1011.51        
Sep 16 13:55 NW 6 16.09 Clear   34 16     34%   34 1012.53        
Sep 16 13:35 NNW 13 16.09 Clear   34 16     34%   34 1012.19        
Sep 16 13:15 WNW 13 16.09 Clear   35 16     32%   35 1012.87        
Sep 16 12:55 Calm 16.09 Clear   35 16     32%   35 1013.21        
Sep 16 12:35 WSW 11 16.09 Clear CLR 35 16     32%   35 1013.55        
Sep 16 12:15 NW 15 16.09 Partly Cloudy SCT120 35 16     32%   35 1013.88        
Sep 16 11:55 WSW 7 16.09 Clear   34 16     34%   34 1013.88        
Sep 16 11:35 W 15 16.09 Clear   34 16     34%   34 1014.22        
Sep 16 11:15 WSW 11 16.09 Clear   34 16     34%   34 1014.56        
Sep 16 10:55 SSE 7 16.09 Clear   33 17     38%   33 1014.56        
Sep 16 10:35 SSW 11 16.09 Clear   33 18     41%   34 1014.9        
Sep 16 10:15 S 11 16.09 Clear   33 19     44%   35 1014.9        
Sep 16 09:55 SSW 11 16.09 Clear   32 19     46%   33 1015.24        
Sep 16 09:35 SSW 9 16.09 Clear   31 19     49%   32 1015.58        
Sep 16 09:15 S 7 16.09 Clear   31 19     49%   32 1015.24        
Sep 16 08:55 SE 9 16.09 Mostly Cloudy BKN110 30 18     49%   31 1015.24        
Sep 16 08:35 SSE 9 16.09 Partly Cloudy SCT100 SCT120 29 17     48%   29 1015.24        
Sep 16 08:15 S 9 16.09 Clear   28 17     51%   29 1015.24        
Sep 16 07:55 SE 13 16.09 Clear   28 16     48%   28 1014.9        
Sep 16 07:35 SE 13 16.09 Clear   28 16     48%   28 1014.56        
Sep 16 07:15 ESE 13 16.09 Clear   27 16     51%   27 1014.56        
Sep 16 06:55 ESE 17 16.09 Clear   26 16     54%   26 1014.22        
Sep 16 06:35 ESE 17 16.09 Clear   25 15     54%   25 1014.22        
Sep 16 06:15 ESE 15 16.09 Clear   25 15     54%   25 1014.22        
Sep 16 05:55 E 19 16.09 Clear   25 14     50%   25 1013.88        
Sep 16 05:35 ESE 15 16.09 Clear   25 13     47%   25 1013.88        
Sep 16 05:15 SE 11 16.09 Clear   25 13     47%   25 1013.88        
Sep 16 04:55 Calm 16.09 Clear   25 13     47%   25 1013.88        
Sep 16 04:35 ESE 9 16.09 Clear   26 13     45%   26 1013.21        
Sep 16 04:15 ESE 11 16.09 Clear   26 13     45%   26 1013.21        
Sep 16 03:55 ESE 11 16.09 Cloudy BKN095 OVC120 26 12     42%   26 1013.21        
Sep 16 03:35 ESE 15 16.09 Clear   26 12     42%   26 1013.21        
Sep 16 03:15 ESE 13 16.09 Cloudy BKN095 OVC120 26 12     42%   26 1013.21        
Sep 16 02:55 ESE 15 16.09 Clear   26 12     42%   26 1013.21        
Sep 16 02:35 ESE 13 16.09 Clear   26 12     42%   26 1013.21        
Sep 16 02:15 SE 11 16.09 Cloudy BKN095 OVC120 27 12     39%   27 1013.21        
Sep 16 01:55 SE 13 16.09 Clear   28 12     37%   27 1013.21        
Sep 16 01:35 ESE 11 16.09 Clear   27 12     39%   27 1013.21        
Sep 16 01:15 ESE 11 16.09 Clear   28 12     37%   27 1013.21        
Sep 16 00:55 ESE 13 16.09 Clear   27 12     39%   27 1013.21        
Sep 16 00:35 E 13 16.09 Clear   27 12     39%   27 1013.21        
Sep 16 00:15 ESE 13 16.09 Clear   28 12     37%   27 1013.21        
Sep 15 23:55 SE 11 16.09 Clear   27 12     39%   27 1013.21        
Sep 15 23:35 SE 11 16.09 Clear   27 12     39%   27 1013.21        
Sep 15 23:15 SE 11 16.09 Clear   27 12     39%   27 1012.87        
Sep 15 22:55 SE 7 16.09 Clear   27 13     42%   27 1012.87        
Sep 15 22:35 SSE 7 16.09 Clear   28 14     42%   28 1012.87        
Sep 15 22:15 S 6 16.09 Clear   27 14     45%   27 1012.53        
Sep 15 21:55 SSW 9 16.09 Mostly Cloudy SCT070 BKN090 BKN120 28 14     42%   28 1012.87        
Sep 15 21:35 Calm 16.09 Mostly Cloudy SCT080 BKN090 BKN120 30 12     33%   29 1012.53        
Sep 15 21:15 Calm 16.09 Cloudy SCT070 BKN090 OVC110 30 12     33%   29 1012.53        
Sep 15 20:55 SE 6 16.09 Clear   30 12     33%   29 1012.53        
Sep 15 20:35 E 11 16.09 Clear   30 12     33%   29 1012.19        
Sep 15 20:15 E 11 16.09 Partly Cloudy SCT120 31 12     31%   30 1012.19        
Sep 15 19:55 E 9 16.09 Clear   31 12     31%   30 1011.85        
Sep 15 19:35 NE 7 16.09 Clear   32 13     31%   31 1011.85        
Sep 15 19:15 NE 6 11.27 Clear   32 13     31%   31 1011.51        
Sep 15 18:55 NE 6 16.09 Clear   33 14     32%   32 1011.51        
Sep 15 18:35 N 6 16.09 Clear   34 14     30%   33 1011.18        
Sep 15 18:15 Calm 16.09 Clear CLR 34 13     28%   33 1011.18        
Sep 15 17:55 W 7 16.09 Clear   35 12     25%   34 1011.18        
Sep 15 17:35 W 6 16.09 Clear   35 12     25%   34 1011.18        
Sep 15 17:15 W 9 16.09 Clear   35 13     27%   34 1011.18        
Sep 15 16:55 SSE 7 16.09 Clear   35 13     27%   34 1011.18        
Sep 15 16:35 S 9 16.09 Clear   35 13     27%   34 1011.18        
Sep 15 16:15 SSE 7 16.09 Clear   35 13     27%   34 1011.51        
Sep 15 15:55 WSW 6 16.09 Cloudy BKN100 OVC120 35 14     28%   34 1011.85        
Sep 15 15:35 SW 13 16.09 Clear   35 14     28%   34 1011.85        
Sep 15 15:15 SSW 11 16.09 Clear   35 14     28%   34 1012.19        
Sep 15 14:55 SSW 9 16.09 Clear   35 14     28%   34 1012.53        
Sep 15 14:35 S 11 16.09 Mostly Cloudy BKN100 BKN120 35 15     30%   35 1012.87        
Sep 15 14:15 S 6 16.09 Clear   35 14     28%   34 1013.21        
Sep 15 13:55 SSW 11 16.09 Clear   35 15     30%   35 1013.55        
Sep 15 13:35 ESE 15 16.09 Clear   34 15     32%   34 1013.88        
Sep 15 13:15 ESE 11 16.09 Clear   34 15     32%   34 1014.22        
Sep 15 12:55 S 7 16.09 Mostly Cloudy BKN110 34 15     32%   34 1014.56        
Sep 15 12:35 ESE 9 16.09 Clear   34 15     32%   34 1014.9        
Sep 15 12:15 SSE 6 16.09 Clear   33 16     36%   33 1015.24        
Sep 15 11:55 E 13 16.09 Clear   33 16     36%   33 1015.58        
Sep 15 11:35 SE 13 16.09 Clear   32 16     38%   32 1015.58        
Sep 15 11:15 SSE 9 16.09 Clear   32 16     38%   32 1015.92        
Sep 15 10:55 ESE 11 16.09 Clear   32 16     38%   32 1016.26        
Sep 15 10:35 ESE 24 16.09 Clear   31 16     40%   31 1016.26        
Sep 15 10:15 SSE 17 16.09 Clear   31 16     40%   31 1016.26        
Sep 15 09:55 ESE 13 16.09 Clear   30 16     43%   30 1016.59        
Sep 15 09:35 ESE 19 16.09 Clear   30 16     43%   30 1016.59        
Sep 15 09:15 ESE 20 16.09 Clear   29 16     45%   29 1016.59        
Sep 15 08:55 ESE 19 16.09 Clear   28 16     48%   28 1016.59        
Sep 15 08:35 ESE 22 16.09 Clear   28 16     48%   28 1016.26        
Sep 15 08:15 E 24 16.09 Clear   28 16     48%   28 1016.26        
Sep 15 07:55 E 15 16.09 Clear   27 16     51%   27 1015.92        
Sep 15 07:35 E 22 16.09 Clear   27 16     51%   27 1015.58        
Sep 15 07:15 E 22 16.09 Clear   27 15     48%   27 1015.58        
Sep 15 06:55   16.09 Clear   27 15     48%   27 1015.24        
Sep 15 06:35   16.09 Clear   27 15     48%   27 1015.24        
Sep 15 06:15 E 22 16.09 Clear   27 15     48%   27 1014.9        
Sep 15 05:55   16.09 Clear   27 14     45%   27 1014.9        
Sep 15 05:35 E 15 16.09 Clear   26 14     48%   26 1014.9        
Sep 15 05:15 E 15 16.09 Clear   27 14     45%   27 1014.9        
Sep 15 04:55 ENE 13 16.09 Clear   27 14     45%   27 1014.9        
Sep 15 04:35 E 15 16.09 Clear   26 14     48%   26 1014.9        
Sep 15 04:15 ENE 11 16.09 Clear   26 14     48%   26 1015.24        
Sep 15 03:55 ENE 11 16.09 Clear   26 14     48%   26 1015.24        
Sep 15 03:35 E 11 16.09 Mostly Cloudy BKN120 26 14     48%   26 1015.24        
Sep 15 03:15 E 19 16.09 Clear   27 14     45%   27 1014.9        
Sep 15 02:55 E 22 16.09 Mostly Cloudy BKN120 27 14     45%   27 1014.56        
Sep 15 02:35 E 26 16.09 Clear   27 14     45%   27 1014.56        
Sep 15 02:15   16.09 Clear   28 14     42%   28 1014.9        
Sep 15 01:55 E 22 16.09 Clear   27 14     45%   27 1015.24        
Sep 15 01:35 E 19 16.09 Clear   28 13     40%   28 1015.58        
Sep 15 01:15 E 22 16.09 Clear   28 13     40%   28 1015.92        
Sep 15 00:55 E 19 16.09 Clear   28 13     40%   28 1015.58        
Sep 15 00:35 NE 15 16.09 Cloudy BKN100 OVC120 27 14     45%   27 1015.92        
Sep 15 00:15 ENE 13 16.09 Clear   28 14     42%   28 1015.92        
Sep 14 23:55 ENE 13 16.09 Clear   28 14     42%   28 1016.26        
Sep 14 23:35 NE 15 16.09 Clear   29 14     40%   29 1016.26        
Sep 14 23:15 ENE 17 16.09 Clear   29 13     37%   28 1015.92        
Sep 14 22:55   16.09 Clear   29 13     37%   28 1015.58        
Sep 14 22:35 E 24 16.09 Mostly Cloudy BKN110 28 13     40%   28 1015.92        
Sep 14 22:15 ESE 17 16.09 Cloudy BKN100 OVC120 28 13     40%   28 1016.26        
Sep 14 21:55 ESE 13 16.09 Clear   28 13     40%   28 1016.26        
Sep 14 21:35 ESE 11 16.09 Clear   28 14     42%   28 1016.26        
Sep 14 21:15 E 11 16.09 Clear   28 14     42%   28 1016.59        
Sep 14 20:55 NE 11 16.09 Clear   28 15     45%   28 1016.93        
Sep 14 20:35 ENE 22 16.09 Clear   29 14     40%   29 1016.93        
Sep 14 20:15 NE 19 16.09 Clear   29 14     40%   29 1016.93        
Sep 14 19:55 ENE 13 16.09 Clear   29 14     40%   29 1016.26        
Sep 14 19:35 E 26 16.09 Clear   29 13     37%   28 1015.58        
Sep 14 19:15 E 30 16.09 Clear   29 13     37%   28 1015.58        
Sep 14 18:55   16.09 Clear   29 13     37%   28 1015.24        
Sep 14 18:35   16.09 Clear   29 13     37%   28 1014.9        
Sep 14 18:15 ESE 43 16.09 Partly Cloudy and Breezy SCT100 SCT120 30 13     35%   29 1015.24        
Sep 14 17:55   16.09 Clear   31 13     33%   30 1015.58        
Sep 14 17:35   16.09 Partly Cloudy SCT090 SCT110 31 15     38%   31 1015.24        
Sep 14 17:15   16.09 Clear   30 16     43%   30 1015.24        
Notice The following observation data may not be complete
Sep 14 16:55 E 28 8.05 Heavy Rain SCT080 BKN110          %         0    
Sep 14 16:35   6.44 Clear   34 15     32%   34          
Sep 14 16:15 SE 13 16.09 Clear   38 12     21%   37 1012.53        
Sep 14 15:55 ESE 19 16.09 Clear   39 12     20%   38 1012.53        
Sep 14 15:35 SE 11 16.09 Clear   38 12     21%   37 1012.53        
Sep 14 15:15 ESE 13 16.09 Clear   38 12     21%   37 1012.87        
Sep 14 14:55 Calm 16.09 Clear   38 13     23%   37 1012.87        
Sep 14 14:35 SW 13 16.09 Clear   38 13     23%   37 1013.21        
Sep 14 14:15 W 11 16.09 Cloudy BKN100 OVC120 37 13     24%   36 1013.55        
Sep 14 13:55 NNW 7 16.09 Clear   37 13     24%   36 1013.88        
Sep 14 13:35 W 15 16.09 Clear   37 13     24%   36 1014.22        
Sep 14 13:15 N 15 16.09 Clear   37 13     24%   36 1014.56        
Sep 14 12:55 N 19 16.09 Clear   37 13     24%   36 1014.9        
Sep 14 12:35 N 9 16.09 Clear   36 13     25%   35 1015.24        
Sep 14 12:15 N 13 11.27 Clear   36 12     24%   35 1015.92        
Sep 14 11:55 ESE 7 16.09 Clear   35 13     27%   34 1016.26        
Sep 14 11:35 ENE 9 16.09 Clear   35 12     25%   34 1016.26        
Sep 14 11:15 SSE 11 16.09 Clear   35 13     27%   34 1016.59        
Sep 14 10:55 SW 6 16.09 Clear   34 14     30%   33 1016.59        
Sep 14 10:35 SW 11 16.09 Clear   34 13     28%   33 1016.93        
Sep 14 10:15 S 9 16.09 Partly Cloudy SCT095 34 14     30%   33 1016.93        
Sep 14 09:55 SSE 13 16.09 Clear   34 13     28%   33 1017.27        
Sep 14 09:35 SE 9 16.09 Partly Cloudy SCT100 33 13     30%   32 1017.27        
Sep 14 09:15 ESE 11 16.09 Clear   33 13     30%   32 1017.27        
Sep 14 08:55 SE 15 16.09 Clear   32 13     31%   31 1017.27        
Sep 14 08:35 ESE 15 16.09 Clear CLR 31 13     33%   30 1017.27        
Sep 14 08:15 E 15 16.09 Clear   30 13     35%   29 1016.93        
Sep 14 07:55 ESE 17 16.09 Clear CLR 30 13     35%   29 1016.93        
Sep 14 07:35 ESE 17 16.09 Clear   29 13     37%   28 1016.59        
Sep 14 07:15 SE 15 16.09 Clear   29 13     37%   28 1016.59        
Sep 14 06:55 SE 17 16.09 Clear CLR 28 13     40%   28 1016.59        
Sep 14 06:35 SE 13 16.09 Clear   27 13     42%   27 1016.26        
Sep 14 06:15 SSE 11 16.09 Clear   27 13     42%   27 1016.26        
Sep 14 05:55 SSE 11 16.09 Mostly Cloudy BKN120 27 13     42%   27 1015.92        
Sep 14 05:35 SSE 9 16.09 Clear   27 13     42%   27 1015.92        
Sep 14 05:15 SSE 9 16.09 Clear CLR 28 13     40%   28 1015.58        
Sep 14 04:55 SE 13 16.09 Clear   29 13     37%   28 1015.58        
Sep 14 04:35 ESE 19 16.09 Clear   29 13     37%   28 1015.24        
Sep 14 04:15 SE 17 16.09 Clear   29 13     37%   28 1015.24        
Sep 14 03:55 ESE 22 16.09 Clear   30 13     35%   29 1014.56        
Sep 14 03:35 ESE 19 16.09 Clear   30 13     35%   29 1014.56        
Sep 14 03:15 ESE 17 16.09 Clear   29 12     35%   28 1014.22        
Sep 14 02:55 ESE 13 16.09 Clear   28 12     37%   27 1014.22        
Sep 14 02:35 ESE 17 16.09 Clear   29 12     35%   28 1014.22        
Sep 14 02:15 ESE 15 16.09 Clear CLR 29 11     33%   28 1014.56        
Sep 14 01:55 ESE 15 16.09 Clear   30 10     29%   29 1014.56        
Sep 14 01:35 ESE 15 16.09 Clear   30 6     22%   28 1014.56        
Sep 14 01:15 SE 13 16.09 Clear   30 6     22%   28 1014.56        
Sep 14 00:55 SE 7 16.09 Clear   30 6     22%   28 1014.56        
Sep 14 00:35 ESE 9 16.09 Clear   30 6     22%   28 1014.22        
Sep 14 00:15 SSE 11 16.09 Clear   31 6     21%   29 1014.22        
Sep 13 23:55 SSE 17 16.09 Clear   31 6     21%   29 1014.22        
Sep 13 23:35 ESE 13 16.09 Clear   30 6     22%   28 1013.88        
Sep 13 23:15 ESE 6 16.09 Clear   29 6     23%   28 1013.55        
Sep 13 22:55 SE 7 16.09 Clear   28 5     23%   27 1013.55        
Sep 13 22:35 SE 9 16.09 Clear   28 5     23%   27 1013.55        
Sep 13 22:15 Calm 16.09 Mostly Cloudy BKN110 28 6     25%   27 1013.21        
Sep 13 21:55 Calm 16.09 Clear   29 6     23%   28 1013.21        
Sep 13 21:35 Calm 16.09 Mostly Cloudy BKN110 30 6     22%   28 1013.21        
Sep 13 21:15 Calm 16.09 Mostly Cloudy BKN110 31 7     22%   29 1012.87        
Sep 13 20:55 Calm 16.09 Clear   32 7     21%   30 1012.53        
Sep 13 20:35 Calm 16.09 Mostly Cloudy BKN100 BKN120 33 6     19%   31 1012.53        
Sep 13 20:15 NW 6 16.09 Clear   34 6     18%   32 1012.19        
Notice The following observation data may not be complete
Sep 13 19:55 Calm 16.09 Clear     9      %     1012.19        
Sep 13 19:35 NNW 6 16.09 Clear   34 9     22%   32 1011.85        
Sep 13 19:15 Calm 16.09 Clear   34 8     20%   32 1011.85        
May 15 07:35 SE 9 16.09 Clear   23 -4     16%   22 1015.24        
Notice The following observation data may not be complete
May 14 23:55   16.09 Clear            %              
May 14 18:55 NW 9 16.09 Clear   32 1     14%   30 1009.82        
May 14 16:55 WNW 13 16.09 Clear   34 0     11%   31 1009.82        
May 14 16:35 WNW 17 16.09 Clear   34 0     11%   31 1009.82        
May 14 11:35 S 13 16.09 Clear   29 -2     13%   27 1014.22        
May 14 09:35 S 7 16.09 Clear   26 -6     12%   25 1014.56        
May 14 05:55 ESE 17 16.09 Clear   17 -10     15%     1013.88        
May 14 03:55 ESE 11 16.09 Clear   16 -9     17%     1013.21        
May 13 19:35 WNW 15 16.09 Clear   28 2     19%   27 1011.51        
Notice The following observation data may not be complete
May 13 06:55   16.09 Clear            %              
May 13 03:35 SSE 13 16.09 Clear   17 4     42%     1013.55        
May 12 22:35 S 17 16.09 Clear   22 0     23%   21          
May 12 00:35   16.09 Clear   24 4     27%   23 1008.47        
May 12 00:15 SW 22 16.09 Clear   24 4     27%   23          
May 11 17:15   4.83 Clear   35 2     13%   32 1004.74        
May 11 10:15   16.09 Clear   33 3     15%   31 1008.81